Aviation Digital Data Service (ADDS)

Output produced by METARs form (1741 UTC 16 October 2021)
found at http://www.aviationweather.gov/metar/data/
 
METAR text: RJOM 161207Z 02014KT 8000 -SHRA FEW008 SCT015 BKN035 18/17 Q1015 RMK 1ST008 3CU015 5CU035 A2997
Conditions at: RJOM (MATSUYAMA AIRPOR, JP) observed 1207 UTC 16 October 2021
Temperature: 18.0°C (64°F)
Dewpoint: 17.0°C (63°F) [RH = 94%]
Pressure (altimeter): 29.97 inches Hg (1015.0 mb)
Winds: from the NNE (20 degrees) at 16 MPH (14 knots; 7.2 m/s)
Visibility: 5 miles ( 8 km)
Ceiling: 3500 feet AGL
Clouds: few clouds at 800 feet AGL
scattered clouds at 1500 feet AGL
broken clouds at 3500 feet AGL
Weather: -SHRA  (light rain showers)

METAR text: RJOM 161200Z 02013KT 6000 SHRA FEW008 SCT015 BKN030 18/17 Q1015
Conditions at: RJOM (MATSUYAMA AIRPOR, JP) observed 1200 UTC 16 October 2021
Temperature: 18.0°C (64°F)
Dewpoint: 17.0°C (63°F) [RH = 94%]
Pressure (altimeter): 29.97 inches Hg (1015.0 mb)
Winds: from the NNE (20 degrees) at 15 MPH (13 knots; 6.7 m/s)
Visibility: 4 miles ( 6 km)
Ceiling: 3000 feet AGL
Clouds: few clouds at 800 feet AGL
scattered clouds at 1500 feet AGL
broken clouds at 3000 feet AGL
Weather: SHRA  (rain showers)

METAR text: RJOM 161145Z 01015KT 5000 SHRA BR FEW008 SCT015 BKN030 18/17 Q1015 RMK 1ST008 3CU015 5CU030 A2997
Conditions at: RJOM (MATSUYAMA AIRPOR, JP) observed 1145 UTC 16 October 2021
Temperature: 18.0°C (64°F)
Dewpoint: 17.0°C (63°F) [RH = 94%]
Pressure (altimeter): 29.97 inches Hg (1015.0 mb)
Winds: from the N (10 degrees) at 17 MPH (15 knots; 7.7 m/s)
Visibility: 3 miles ( 5 km)
Ceiling: 3000 feet AGL
Clouds: few clouds at 800 feet AGL
scattered clouds at 1500 feet AGL
broken clouds at 3000 feet AGL
Weather: SHRA BR  (rain showers, mist)

METAR text: RJOM 161111Z 36023KT 4000 -SHRA BR FEW008 SCT015 BKN030 19/18 Q1014 RMK 1ST008 3CU015 5CU030 A2995
Conditions at: RJOM (MATSUYAMA AIRPOR, JP) observed 1111 UTC 16 October 2021
Temperature: 19.0°C (66°F)
Dewpoint: 18.0°C (64°F) [RH = 94%]
Pressure (altimeter): 29.94 inches Hg (1014.0 mb)
Winds: from the N (360 degrees) at 26 MPH (23 knots; 11.8 m/s)
Visibility: 2.49 miles (4.01 km)
Ceiling: 3000 feet AGL
Clouds: few clouds at 800 feet AGL
scattered clouds at 1500 feet AGL
broken clouds at 3000 feet AGL
Weather: -SHRA BR  (light rain showers, mist)

METAR text: RJOM 161100Z 36020KT 5000 -SHRA BR FEW008 SCT015 BKN030 19/18 Q1014
Conditions at: RJOM (MATSUYAMA AIRPOR, JP) observed 1100 UTC 16 October 2021
Temperature: 19.0°C (66°F)
Dewpoint: 18.0°C (64°F) [RH = 94%]
Pressure (altimeter): 29.94 inches Hg (1014.0 mb)
Winds: from the N (360 degrees) at 23 MPH (20 knots; 10.3 m/s)
Visibility: 3 miles ( 5 km)
Ceiling: 3000 feet AGL
Clouds: few clouds at 800 feet AGL
scattered clouds at 1500 feet AGL
broken clouds at 3000 feet AGL
Weather: -SHRA BR  (light rain showers, mist)

METAR text: RJOM 161044Z 36020KT 4500 -SHRA BR FEW008 SCT015 BKN030 20/19 Q1013 RMK 1ST008 3CU015 5CU030 A2993
Conditions at: RJOM (MATSUYAMA AIRPOR, JP) observed 1044 UTC 16 October 2021
Temperature: 20.0°C (68°F)
Dewpoint: 19.0°C (66°F) [RH = 94%]
Pressure (altimeter): 29.91 inches Hg (1013.0 mb)
Winds: from the N (360 degrees) at 23 MPH (20 knots; 10.3 m/s)
Visibility: 2.80 miles (4.51 km)
Ceiling: 3000 feet AGL
Clouds: few clouds at 800 feet AGL
scattered clouds at 1500 feet AGL
broken clouds at 3000 feet AGL
Weather: -SHRA BR  (light rain showers, mist)

METAR text: RJOM 161000Z 34016KT 9999 -SHRA FEW015 SCT025 BKN035 20/19 Q1012
Conditions at: RJOM (MATSUYAMA AIRPOR, JP) observed 1000 UTC 16 October 2021
Temperature: 20.0°C (68°F)
Dewpoint: 19.0°C (66°F) [RH = 94%]
Pressure (altimeter): 29.88 inches Hg (1012.0 mb)
Winds: from the NNW (340 degrees) at 18 MPH (16 knots; 8.2 m/s)
Visibility: 6 or more miles (10+ km)
Ceiling: 3500 feet AGL
Clouds: few clouds at 1500 feet AGL
scattered clouds at 2500 feet AGL
broken clouds at 3500 feet AGL
Weather: -SHRA  (light rain showers)

METAR text: RJOM 160900Z 23009KT 220V340 9999 FEW035 SCT050 BKN100 24/20 Q1011
Conditions at: RJOM (MATSUYAMA AIRPOR, JP) observed 0900 UTC 16 October 2021
Temperature: 24.0°C (75°F)
Dewpoint: 20.0°C (68°F) [RH = 78%]
Pressure (altimeter): 29.85 inches Hg (1011.0 mb)
Winds: from the SW (230 degrees) at 10 MPH (9 knots; 4.6 m/s)
Visibility: 6 or more miles (10+ km)
Ceiling: 10000 feet AGL
Clouds: few clouds at 3500 feet AGL
scattered clouds at 5000 feet AGL
broken clouds at 10000 feet AGL
Weather: no significant weather observed at this time

METAR text: RJOM 160800Z 23008KT 9999 FEW035 SCT080 BKN120 24/21 Q1011
Conditions at: RJOM (MATSUYAMA AIRPOR, JP) observed 0800 UTC 16 October 2021
Temperature: 24.0°C (75°F)
Dewpoint: 21.0°C (70°F) [RH = 83%]
Pressure (altimeter): 29.85 inches Hg (1011.0 mb)
Winds: from the SW (230 degrees) at 9 MPH (8 knots; 4.1 m/s)
Visibility: 6 or more miles (10+ km)
Ceiling: 12000 feet AGL
Clouds: few clouds at 3500 feet AGL
scattered clouds at 8000 feet AGL
broken clouds at 12000 feet AGL
Weather: no significant weather observed at this time

METAR text: RJOM 160700Z 23007KT 9999 FEW035 BKN130 25/20 Q1011
Conditions at: RJOM (MATSUYAMA AIRPOR, JP) observed 0700 UTC 16 October 2021
Temperature: 25.0°C (77°F)
Dewpoint: 20.0°C (68°F) [RH = 74%]
Pressure (altimeter): 29.85 inches Hg (1011.0 mb)
Winds: from the SW (230 degrees) at 8 MPH (7 knots; 3.6 m/s)
Visibility: 6 or more miles (10+ km)
Ceiling: 13000 feet AGL
Clouds: few clouds at 3500 feet AGL
broken clouds at 13000 feet AGL
Weather: no significant weather observed at this time

METAR text: RJOM 160600Z 23007KT 9999 FEW035 BKN140 25/20 Q1011
Conditions at: RJOM (MATSUYAMA AIRPOR, JP) observed 0600 UTC 16 October 2021
Temperature: 25.0°C (77°F)
Dewpoint: 20.0°C (68°F) [RH = 74%]
Pressure (altimeter): 29.85 inches Hg (1011.0 mb)
Winds: from the SW (230 degrees) at 8 MPH (7 knots; 3.6 m/s)
Visibility: 6 or more miles (10+ km)
Ceiling: 14000 feet AGL
Clouds: few clouds at 3500 feet AGL
broken clouds at 14000 feet AGL
Weather: no significant weather observed at this time

METAR text: RJOM 160500Z 23006KT 9999 FEW025 BKN150 26/22 Q1011
Conditions at: RJOM (MATSUYAMA AIRPOR, JP) observed 0500 UTC 16 October 2021
Temperature: 26.0°C (79°F)
Dewpoint: 22.0°C (72°F) [RH = 79%]
Pressure (altimeter): 29.85 inches Hg (1011.0 mb)
Winds: from the SW (230 degrees) at 7 MPH (6 knots; 3.1 m/s)
Visibility: 6 or more miles (10+ km)
Ceiling: 15000 feet AGL
Clouds: few clouds at 2500 feet AGL
broken clouds at 15000 feet AGL
Weather: no significant weather observed at this time

METAR text: RJOM 160400Z 22004KT 170V260 9999 FEW020 SCT170 25/21 Q1012
Conditions at: RJOM (MATSUYAMA AIRPOR, JP) observed 0400 UTC 16 October 2021
Temperature: 25.0°C (77°F)
Dewpoint: 21.0°C (70°F) [RH = 79%]
Pressure (altimeter): 29.88 inches Hg (1012.0 mb)
Winds: from the SW (220 degrees) at 5 MPH (4 knots; 2.1 m/s)
Visibility: 6 or more miles (10+ km)
Ceiling: at least 12,000 feet AGL
Clouds: few clouds at 2000 feet AGL
scattered clouds at 17000 feet AGL
Weather: no significant weather observed at this time

METAR text: RJOM 160300Z VRB02KT 9999 FEW025 SCT040 BKN060 24/21 Q1013
Conditions at: RJOM (MATSUYAMA AIRPOR, JP) observed 0300 UTC 16 October 2021
Temperature: 24.0°C (75°F)
Dewpoint: 21.0°C (70°F) [RH = 83%]
Pressure (altimeter): 29.91 inches Hg (1013.0 mb)
Winds: variable direction winds at 2 MPH (2 knots; 1.0 m/s)
Visibility: 6 or more miles (10+ km)
Ceiling: 6000 feet AGL
Clouds: few clouds at 2500 feet AGL
scattered clouds at 4000 feet AGL
broken clouds at 6000 feet AGL
Weather: no significant weather observed at this time

METAR text: RJOM 160200Z 28003KT 200V320 9999 FEW015 SCT025 BKN040 24/20 Q1014
Conditions at: RJOM (MATSUYAMA AIRPOR, JP) observed 0200 UTC 16 October 2021
Temperature: 24.0°C (75°F)
Dewpoint: 20.0°C (68°F) [RH = 78%]
Pressure (altimeter): 29.94 inches Hg (1014.0 mb)
Winds: from the W (280 degrees) at 3 MPH (3 knots; 1.5 m/s)
Visibility: 6 or more miles (10+ km)
Ceiling: 4000 feet AGL
Clouds: few clouds at 1500 feet AGL
scattered clouds at 2500 feet AGL
broken clouds at 4000 feet AGL
Weather: no significant weather observed at this time

METAR text: RJOM 160100Z VRB02KT 9999 FEW015 SCT025 BKN050 24/20 Q1014
Conditions at: RJOM (MATSUYAMA AIRPOR, JP) observed 0100 UTC 16 October 2021
Temperature: 24.0°C (75°F)
Dewpoint: 20.0°C (68°F) [RH = 78%]
Pressure (altimeter): 29.94 inches Hg (1014.0 mb)
Winds: variable direction winds at 2 MPH (2 knots; 1.0 m/s)
Visibility: 6 or more miles (10+ km)
Ceiling: 5000 feet AGL
Clouds: few clouds at 1500 feet AGL
scattered clouds at 2500 feet AGL
broken clouds at 5000 feet AGL
Weather: no significant weather observed at this time

METAR text: RJOM 160000Z VRB02KT 9999 FEW015 SCT025 BKN045 24/20 Q1014
Conditions at: RJOM (MATSUYAMA AIRPOR, JP) observed 0000 UTC 16 October 2021
Temperature: 24.0°C (75°F)
Dewpoint: 20.0°C (68°F) [RH = 78%]
Pressure (altimeter): 29.94 inches Hg (1014.0 mb)
Winds: variable direction winds at 2 MPH (2 knots; 1.0 m/s)
Visibility: 6 or more miles (10+ km)
Ceiling: 4500 feet AGL
Clouds: few clouds at 1500 feet AGL
scattered clouds at 2500 feet AGL
broken clouds at 4500 feet AGL
Weather: no significant weather observed at this time

METAR text: RJOM 152300Z VRB02KT 9999 FEW020 BKN035 BKN050 22/19 Q1014
Conditions at: RJOM (MATSUYAMA AIRPOR, JP) observed 2300 UTC 15 October 2021
Temperature: 22.0°C (72°F)
Dewpoint: 19.0°C (66°F) [RH = 83%]
Pressure (altimeter): 29.94 inches Hg (1014.0 mb)
Winds: variable direction winds at 2 MPH (2 knots; 1.0 m/s)
Visibility: 6 or more miles (10+ km)
Ceiling: 3500 feet AGL
Clouds: few clouds at 2000 feet AGL
broken clouds at 3500 feet AGL
broken clouds at 5000 feet AGL
Weather: no significant weather observed at this time

METAR text: RJOM 152200Z 12005KT 9999 FEW020 BKN035 21/19 Q1014
Conditions at: RJOM (MATSUYAMA AIRPOR, JP) observed 2200 UTC 15 October 2021
Temperature: 21.0°C (70°F)
Dewpoint: 19.0°C (66°F) [RH = 88%]
Pressure (altimeter): 29.94 inches Hg (1014.0 mb)
Winds: from the ESE (120 degrees) at 6 MPH (5 knots; 2.6 m/s)
Visibility: 6 or more miles (10+ km)
Ceiling: 3500 feet AGL
Clouds: few clouds at 2000 feet AGL
broken clouds at 3500 feet AGL
Weather: no significant weather observed at this time

METAR text: RJOM 152110Z 13004KT 9999 FEW015 SCT030 BKN040 20/19 Q1014 RMK 1CU015 4CU030 6CU040 A2995
Conditions at: RJOM (MATSUYAMA AIRPOR, JP) observed 2110 UTC 15 October 2021
Temperature: 20.0°C (68°F)
Dewpoint: 19.0°C (66°F) [RH = 94%]
Pressure (altimeter): 29.94 inches Hg (1014.0 mb)
Winds: from the SE (130 degrees) at 5 MPH (4 knots; 2.1 m/s)
Visibility: 6 or more miles (10+ km)
Ceiling: 4000 feet AGL
Clouds: few clouds at 1500 feet AGL
scattered clouds at 3000 feet AGL
broken clouds at 4000 feet AGL
Weather: no significant weather observed at this time

METAR text: RJOM 151200Z 12005KT 9999 FEW030 22/19 Q1014
Conditions at: RJOM (MATSUYAMA AIRPOR, JP) observed 1200 UTC 15 October 2021
Temperature: 22.0°C (72°F)
Dewpoint: 19.0°C (66°F) [RH = 83%]
Pressure (altimeter): 29.94 inches Hg (1014.0 mb)
Winds: from the ESE (120 degrees) at 6 MPH (5 knots; 2.6 m/s)
Visibility: 6 or more miles (10+ km)
Ceiling: at least 12,000 feet AGL
Clouds: few clouds at 3000 feet AGL
Weather: no significant weather observed at this time

METAR text: RJOM 151100Z VRB02KT 9999 FEW030 22/19 Q1014
Conditions at: RJOM (MATSUYAMA AIRPOR, JP) observed 1100 UTC 15 October 2021
Temperature: 22.0°C (72°F)
Dewpoint: 19.0°C (66°F) [RH = 83%]
Pressure (altimeter): 29.94 inches Hg (1014.0 mb)
Winds: variable direction winds at 2 MPH (2 knots; 1.0 m/s)
Visibility: 6 or more miles (10+ km)
Ceiling: at least 12,000 feet AGL
Clouds: few clouds at 3000 feet AGL
Weather: no significant weather observed at this time

METAR text: RJOM 151000Z 18002KT 9999 FEW030 23/19 Q1014
Conditions at: RJOM (MATSUYAMA AIRPOR, JP) observed 1000 UTC 15 October 2021
Temperature: 23.0°C (73°F)
Dewpoint: 19.0°C (66°F) [RH = 78%]
Pressure (altimeter): 29.94 inches Hg (1014.0 mb)
Winds: from the S (180 degrees) at 2 MPH (2 knots; 1.0 m/s)
Visibility: 6 or more miles (10+ km)
Ceiling: at least 12,000 feet AGL
Clouds: few clouds at 3000 feet AGL
Weather: no significant weather observed at this time

METAR text: RJOM 150900Z VRB02KT 9999 FEW030 23/19 Q1014
Conditions at: RJOM (MATSUYAMA AIRPOR, JP) observed 0900 UTC 15 October 2021
Temperature: 23.0°C (73°F)
Dewpoint: 19.0°C (66°F) [RH = 78%]
Pressure (altimeter): 29.94 inches Hg (1014.0 mb)
Winds: variable direction winds at 2 MPH (2 knots; 1.0 m/s)
Visibility: 6 or more miles (10+ km)
Ceiling: at least 12,000 feet AGL
Clouds: few clouds at 3000 feet AGL
Weather: no significant weather observed at this time

METAR text: RJOM 150800Z 26004KT 240V310 9999 FEW030 24/19 Q1014
Conditions at: RJOM (MATSUYAMA AIRPOR, JP) observed 0800 UTC 15 October 2021
Temperature: 24.0°C (75°F)
Dewpoint: 19.0°C (66°F) [RH = 74%]
Pressure (altimeter): 29.94 inches Hg (1014.0 mb)
Winds: from the W (260 degrees) at 5 MPH (4 knots; 2.1 m/s)
Visibility: 6 or more miles (10+ km)
Ceiling: at least 12,000 feet AGL
Clouds: few clouds at 3000 feet AGL
Weather: no significant weather observed at this time

METAR text: RJOM 150700Z 25005KT 9999 FEW030 24/19 Q1014
Conditions at: RJOM (MATSUYAMA AIRPOR, JP) observed 0700 UTC 15 October 2021
Temperature: 24.0°C (75°F)
Dewpoint: 19.0°C (66°F) [RH = 74%]
Pressure (altimeter): 29.94 inches Hg (1014.0 mb)
Winds: from the WSW (250 degrees) at 6 MPH (5 knots; 2.6 m/s)
Visibility: 6 or more miles (10+ km)
Ceiling: at least 12,000 feet AGL
Clouds: few clouds at 3000 feet AGL
Weather: no significant weather observed at this time

METAR text: RJOM 150600Z 26003KT 180V320 9999 FEW025 25/20 Q1014
Conditions at: RJOM (MATSUYAMA AIRPOR, JP) observed 0600 UTC 15 October 2021
Temperature: 25.0°C (77°F)
Dewpoint: 20.0°C (68°F) [RH = 74%]
Pressure (altimeter): 29.94 inches Hg (1014.0 mb)
Winds: from the W (260 degrees) at 3 MPH (3 knots; 1.5 m/s)
Visibility: 6 or more miles (10+ km)
Ceiling: at least 12,000 feet AGL
Clouds: few clouds at 2500 feet AGL
Weather: no significant weather observed at this time

Forecast for: RJOM (MATSUYAMA AIRPOR, JP)
Text: TAF RJOM 161705Z 1618/1800 35018KT 9999 FEW020 BKN040
Forecast period: 1800 UTC 16 October 2021 to 0000 UTC 18 October 2021
Forecast type: FROM: standard forecast or significant change
Winds: from the N (350 degrees) at 21 MPH (18 knots; 9.3 m/s)
Visibility: 6 or more miles (10+ km)
Ceiling: 4000 feet AGL
Clouds: few clouds at 2000 feet AGL
broken clouds at 4000 feet AGL
Weather: no significant weather forecast for this period